Time;durP1;ratioP1;P1;durP2;ratioP2;P2;SDS_P1;SDS_P2;PMS_P1;PMS_P2;Temp;Humidity;BMP_temperature;BMP_pressure;BME280_temperature;BME280_humidity;BME280_pressure;Samples;Min_cycle;Max_cycle;Signal;HPM_P1;HPM_P2
2023/03/28 00:01:33;;;;;;;0.03;0.03;;;2.30;99.90;;;;;;5005912;28;20190;-58
2023/03/28 00:04:00;;;;;;;0.00;0.00;;;2.30;99.90;;;;;;4993111;28;20176;-58
2023/03/28 00:06:26;;;;;;;0.00;0.00;;;2.20;99.90;;;;;;5008408;28;20233;-58
2023/03/28 00:08:52;;;;;;;0.00;0.00;;;2.20;99.90;;;;;;5006099;28;20194;-59
2023/03/28 00:11:20;;;;;;;0.00;0.00;;;2.20;99.90;;;;;;4992714;28;20226;-58
2023/03/28 00:13:59;;;;;;;0.00;0.00;;;2.20;99.90;;;;;;5008325;28;20219;-59
2023/03/28 00:16:32;;;;;;;0.00;0.00;;;2.10;99.90;;;;;;5011512;28;20524;-59
2023/03/28 00:18:59;;;;;;;0.73;0.73;;;2.10;99.90;;;;;;5012195;28;20183;-59
2023/03/28 00:21:29;;;;;;;0.40;0.40;;;2.10;99.90;;;;;;4992680;28;20198;-59
2023/03/28 00:24:00;;;;;;;0.10;0.10;;;2.10;99.90;;;;;;5001459;28;20201;-59
2023/03/28 00:26:27;;;;;;;0.00;0.00;;;1.50;99.90;;;;;;5011425;28;20182;-59
2023/03/28 00:28:55;;;;;;;0.00;0.00;;;2.10;99.90;;;;;;5012250;28;20181;-58
2023/03/28 00:31:21;;;;;;;0.00;0.00;;;2.10;99.90;;;;;;5001880;28;20186;-58
2023/03/28 00:33:47;;;;;;;0.00;0.00;;;2.10;99.90;;;;;;4992388;28;20729;-58
2023/03/28 00:36:17;;;;;;;0.00;0.00;;;2.10;99.90;;;;;;5011930;28;20170;-59
2023/03/28 00:38:45;;;;;;;0.00;0.00;;;2.00;99.90;;;;;;5001354;28;20183;-58
2023/03/28 00:41:14;;;;;;;0.00;0.00;;;2.10;99.90;;;;;;4992815;28;20182;-58
2023/03/28 00:43:50;;;;;;;0.00;0.00;;;2.10;99.90;;;;;;5011906;28;20265;-59
2023/03/28 00:46:26;;;;;;;0.00;0.00;;;2.10;99.90;;;;;;4999407;28;20182;-59
2023/03/28 00:48:55;;;;;;;0.00;0.00;;;2.00;99.90;;;;;;4997636;28;20194;-58
2023/03/28 00:51:25;;;;;;;0.00;0.00;;;2.00;99.90;;;;;;5011463;28;20693;-59
2023/03/28 00:53:56;;;;;;;0.00;0.00;;;2.00;99.90;;;;;;4997207;28;20233;-58
2023/03/28 00:56:24;;;;;;;0.00;0.00;;;2.00;99.90;;;;;;5008487;28;20197;-58
2023/03/28 00:58:50;;;;;;;0.00;0.00;;;2.00;99.90;;;;;;5010346;28;20270;-59
2023/03/28 01:01:18;;;;;;;0.00;0.00;;;2.00;99.90;;;;;;5005422;28;20174;-58
2023/03/28 01:03:51;;;;;;;0.00;0.00;;;2.00;99.90;;;;;;5005278;28;20512;-58
2023/03/28 01:06:20;;;;;;;0.00;0.00;;;2.00;99.90;;;;;;5011043;28;20223;-59
2023/03/28 01:08:47;;;;;;;0.00;0.00;;;2.00;99.90;;;;;;4991912;28;20212;-59
2023/03/28 01:11:14;;;;;;;0.00;0.00;;;1.90;99.90;;;;;;4984407;28;20642;-58
2023/03/28 01:13:49;;;;;;;0.00;0.00;;;1.90;99.90;;;;;;5010989;28;20649;-58
2023/03/28 01:16:17;;;;;;;0.00;0.00;;;1.90;99.90;;;;;;5011541;28;20190;-59
2023/03/28 01:18:50;;;;;;;0.20;0.20;;;1.80;99.90;;;;;;5011399;28;20171;-58
2023/03/28 01:21:53;;;;;;;0.00;0.00;;;1.80;99.90;;;;;;5011373;28;20700;-58
2023/03/28 01:24:40;;;;;;;0.00;0.00;;;1.80;99.90;;;;;;5011232;28;20174;-59
2023/03/28 01:27:25;;;;;;;0.00;0.00;;;1.70;99.90;;;;;;5010929;28;20176;-58
2023/03/28 01:30:15;;;;;;;0.00;0.00;;;1.70;99.90;;;;;;4994046;28;20189;-58
2023/03/28 01:33:18;;;;;;;0.00;0.00;;;1.60;99.90;;;;;;4993254;28;20270;-58
2023/03/28 01:35:58;;;;;;;0.00;0.00;;;1.60;99.90;;;;;;5008832;28;20530;-58
2023/03/28 01:38:53;;;;;;;0.00;0.00;;;1.50;99.90;;;;;;5010142;28;20182;-58
2023/03/28 01:41:30;;;;;;;0.00;0.00;;;1.50;99.90;;;;;;4995729;28;20278;-58
2023/03/28 01:44:20;;;;;;;0.00;0.00;;;1.50;99.90;;;;;;4995868;28;20586;-58
2023/03/28 01:46:58;;;;;;;0.00;0.00;;;1.50;99.90;;;;;;5008741;28;20289;-58
2023/03/28 01:49:56;;;;;;;0.00;0.00;;;1.40;99.90;;;;;;4992249;28;20194;-58
2023/03/28 01:52:35;;;;;;;0.00;0.00;;;1.40;99.90;;;;;;4988340;28;20204;-58
2023/03/28 01:55:04;;;;;;;0.00;0.00;;;1.40;99.90;;;;;;4998709;28;20666;-58
2023/03/28 01:57:49;;;;;;;0.00;0.00;;;1.40;99.90;;;;;;5013630;28;20171;-58
2023/03/28 02:00:28;;;;;;;0.00;0.00;;;1.40;99.90;;;;;;5014685;28;20236;-59
2023/03/28 02:02:59;;;;;;;0.00;0.00;;;1.40;99.90;;;;;;4997518;28;20178;-58
2023/03/28 02:05:27;;;;;;;0.00;0.00;;;1.40;99.90;;;;;;5008633;28;20183;-58
2023/03/28 02:07:53;;;;;;;0.00;0.00;;;1.40;99.90;;;;;;5008651;28;20474;-58
2023/03/28 02:10:24;;;;;;;0.00;0.00;;;1.30;99.90;;;;;;4977545;28;20187;-58
2023/03/28 02:12:58;;;;;;;0.00;0.00;;;1.40;99.90;;;;;;5010744;28;20182;-58
2023/03/28 02:15:26;;;;;;;0.17;0.17;;;1.30;99.90;;;;;;5013934;28;20317;-58
2023/03/28 02:17:58;;;;;;;0.03;0.03;;;1.30;99.90;;;;;;5014743;28;20183;-58
2023/03/28 02:20:27;;;;;;;0.00;0.00;;;1.20;99.90;;;;;;4996680;28;20180;-58
2023/03/28 02:23:01;;;;;;;0.00;0.00;;;1.20;99.90;;;;;;5009969;28;20190;-58
2023/03/28 02:25:28;;;;;;;0.00;0.00;;;1.10;99.90;;;;;;5013620;28;20187;-58
2023/03/28 02:28:00;;;;;;;0.00;0.00;;;1.10;99.90;;;;;;5012848;28;20193;-58
2023/03/28 02:30:26;;;;;;;0.00;0.00;;;1.10;99.90;;;;;;4994706;28;20399;-58
2023/03/28 02:32:56;;;;;;;0.00;0.00;;;1.10;99.90;;;;;;5006703;28;20194;-59
2023/03/28 02:35:28;;;;;;;0.00;0.00;;;1.10;99.90;;;;;;5011415;28;20269;-58
2023/03/28 02:38:09;;;;;;;0.00;0.00;;;1.10;99.90;;;;;;4994795;28;20176;-58
2023/03/28 02:40:40;;;;;;;0.00;0.00;;;1.10;99.90;;;;;;5009468;28;20198;-58
2023/03/28 02:43:30;;;;;;;0.00;0.00;;;1.20;99.90;;;;;;5008339;28;20636;-58
2023/03/28 02:46:26;;;;;;;0.00;0.00;;;1.20;99.90;;;;;;4993087;28;20171;-58
2023/03/28 02:48:52;;;;;;;0.00;0.00;;;1.20;99.90;;;;;;4994541;28;20651;-58
2023/03/28 02:51:40;;;;;;;0.00;0.00;;;1.20;99.90;;;;;;5006732;28;20178;-58
2023/03/28 02:54:25;;;;;;;0.00;0.00;;;1.20;99.90;;;;;;5011407;28;20214;-58
2023/03/28 02:57:05;;;;;;;0.00;0.00;;;1.10;99.90;;;;;;5004672;28;20182;-58
2023/03/28 03:00:08;;;;;;;0.00;0.00;;;1.10;99.90;;;;;;4995881;28;20182;-58
2023/03/28 03:02:34;;;;;;;0.00;0.00;;;1.10;99.90;;;;;;4972119;28;20221;-58
2023/03/28 03:05:00;;;;;;;0.00;0.00;;;1.00;99.90;;;;;;5012783;28;20186;-58
2023/03/28 03:07:26;;;;;;;0.00;0.00;;;1.00;99.90;;;;;;5009505;28;20219;-58
2023/03/28 03:09:52;;;;;;;0.00;0.00;;;1.00;99.90;;;;;;4993605;28;20217;-58
2023/03/28 03:12:19;;;;;;;0.00;0.00;;;1.00;99.90;;;;;;5006069;28;20234;-59
2023/03/28 03:14:45;;;;;;;0.00;0.00;;;1.00;99.90;;;;;;5011941;28;20233;-58
2023/03/28 03:17:11;;;;;;;0.00;0.00;;;0.90;99.90;;;;;;5013263;28;20592;-58
2023/03/28 03:19:36;;;;;;;0.00;0.00;;;0.90;99.90;;;;;;4995601;28;20661;-58
2023/03/28 03:22:02;;;;;;;0.00;0.00;;;0.90;99.90;;;;;;5000294;28;20186;-58
2023/03/28 03:24:28;;;;;;;0.00;0.00;;;0.90;99.90;;;;;;5008078;28;20278;-58
2023/03/28 03:26:53;;;;;;;0.00;0.00;;;0.80;99.90;;;;;;4993274;28;20180;-58
2023/03/28 03:29:19;;;;;;;0.00;0.00;;;0.80;99.90;;;;;;5002233;28;20194;-58
2023/03/28 03:31:45;;;;;;;0.00;0.00;;;0.80;99.90;;;;;;4979831;28;20179;-58
2023/03/28 03:34:10;;;;;;;0.10;0.10;;;0.80;99.90;;;;;;4993109;28;20219;-59
2023/03/28 03:36:36;;;;;;;0.00;0.00;;;0.80;99.90;;;;;;4994297;28;20263;-59
2023/03/28 03:39:02;;;;;;;0.10;0.10;;;0.80;99.90;;;;;;5000371;28;20175;-58
2023/03/28 03:41:28;;;;;;;0.00;0.00;;;0.70;99.90;;;;;;4997628;28;20634;-58
2023/03/28 03:43:53;;;;;;;0.00;0.00;;;0.70;99.90;;;;;;4994639;28;20187;-58
2023/03/28 03:46:19;;;;;;;0.00;0.00;;;0.70;99.90;;;;;;5012561;28;20663;-58
2023/03/28 03:48:44;;;;;;;0.00;0.00;;;0.70;99.90;;;;;;5012050;28;20178;-58
2023/03/28 03:51:10;;;;;;;0.00;0.00;;;0.70;99.90;;;;;;5012071;28;20274;-58
2023/03/28 03:53:35;;;;;;;0.10;0.10;;;0.70;99.90;;;;;;5012155;28;20219;-58
2023/03/28 03:56:02;;;;;;;0.10;0.10;;;0.70;99.90;;;;;;5011686;28;20203;-58
2023/03/28 03:58:28;;;;;;;0.00;0.00;;;0.70;99.90;;;;;;5011779;28;20197;-59
2023/03/28 04:00:54;;;;;;;0.00;0.00;;;0.70;99.90;;;;;;5002645;28;20180;-59
2023/03/28 04:03:20;;;;;;;0.00;0.00;;;0.60;99.90;;;;;;5012121;28;20229;-59
2023/03/28 04:05:45;;;;;;;0.10;0.10;;;0.60;99.90;;;;;;5011897;28;20211;-58
2023/03/28 04:08:11;;;;;;;0.20;0.20;;;0.60;99.90;;;;;;5004484;28;20266;-58
2023/03/28 04:10:36;;;;;;;0.00;0.00;;;0.60;99.90;;;;;;4992810;28;20230;-58
2023/03/28 04:13:02;;;;;;;0.00;0.00;;;0.50;99.90;;;;;;4997863;28;20290;-59
2023/03/28 04:15:28;;;;;;;0.00;0.00;;;0.50;99.90;;;;;;5002677;28;20273;-58
2023/03/28 04:17:55;;;;;;;0.00;0.00;;;0.50;99.90;;;;;;5012136;28;20186;-58
2023/03/28 04:20:22;;;;;;;0.00;0.00;;;0.50;99.90;;;;;;5011727;28;20202;-59
2023/03/28 04:22:47;;;;;;;0.00;0.00;;;0.50;99.90;;;;;;5012404;28;20186;-58
2023/03/28 04:25:13;;;;;;;0.00;0.00;;;0.50;99.90;;;;;;5011967;28;20262;-59
2023/03/28 04:27:40;;;;;;;0.00;0.00;;;0.50;99.90;;;;;;5012090;28;20187;-59
2023/03/28 04:30:08;;;;;;;0.00;0.00;;;0.50;99.90;;;;;;5012208;28;20180;-58
2023/03/28 04:32:34;;;;;;;0.00;0.00;;;0.50;99.90;;;;;;5012113;28;20198;-58
2023/03/28 04:35:02;;;;;;;0.10;0.10;;;0.40;99.90;;;;;;5011977;28;20260;-59
2023/03/28 04:37:28;;;;;;;0.00;0.00;;;0.40;99.90;;;;;;5011817;28;20209;-58
2023/03/28 04:39:54;;;;;;;0.00;0.00;;;0.40;99.90;;;;;;5012027;28;20187;-59
2023/03/28 04:42:20;;;;;;;0.00;0.00;;;0.40;99.90;;;;;;5011853;28;20206;-58
2023/03/28 04:44:46;;;;;;;0.00;0.00;;;0.40;99.90;;;;;;5012055;28;20186;-58
2023/03/28 04:47:11;;;;;;;0.00;0.00;;;0.40;99.90;;;;;;5011881;28;20183;-59
2023/03/28 04:49:37;;;;;;;0.00;0.00;;;0.40;99.90;;;;;;5011835;28;20237;-58
2023/03/28 04:52:04;;;;;;;0.00;0.00;;;0.40;99.90;;;;;;5011926;28;20181;-58
2023/03/28 04:54:30;;;;;;;0.00;0.00;;;0.30;99.90;;;;;;5011606;28;20223;-58
2023/03/28 04:56:55;;;;;;;0.17;0.17;;;0.30;99.90;;;;;;5011912;28;20220;-58
2023/03/28 04:59:21;;;;;;;0.00;0.00;;;0.30;99.90;;;;;;5011727;28;20640;-58
2023/03/28 05:01:49;;;;;;;0.00;0.00;;;0.30;99.90;;;;;;5011760;28;20166;-58
2023/03/28 05:04:19;;;;;;;0.00;0.00;;;0.20;99.90;;;;;;5011713;28;20536;-58
2023/03/28 05:06:48;;;;;;;0.00;0.00;;;0.20;99.90;;;;;;5011636;28;20238;-58
2023/03/28 05:09:16;;;;;;;0.07;0.07;;;0.30;99.90;;;;;;5010876;28;20225;-58
2023/03/28 05:11:42;;;;;;;0.10;0.10;;;0.30;99.90;;;;;;5011783;28;20189;-58
2023/03/28 05:14:08;;;;;;;0.00;0.00;;;0.30;99.90;;;;;;5011408;28;20304;-59
2023/03/28 05:16:34;;;;;;;0.00;0.00;;;0.30;99.90;;;;;;5011436;28;20947;-58
2023/03/28 05:19:00;;;;;;;0.00;0.00;;;0.30;99.90;;;;;;5011735;28;20183;-58
2023/03/28 05:21:26;;;;;;;0.00;0.00;;;0.30;99.90;;;;;;5011612;28;20697;-58
2023/03/28 05:23:51;;;;;;;0.00;0.00;;;0.30;99.90;;;;;;5011496;28;20298;-58
2023/03/28 05:26:17;;;;;;;0.00;0.00;;;0.30;99.90;;;;;;4993940;28;20179;-58
2023/03/28 05:28:43;;;;;;;0.10;0.10;;;0.30;99.90;;;;;;5011070;28;20233;-58
2023/03/28 05:31:08;;;;;;;0.00;0.00;;;0.30;99.90;;;;;;5010958;28;20262;-59
2023/03/28 05:33:34;;;;;;;0.00;0.00;;;0.30;99.90;;;;;;4993322;28;20659;-58
2023/03/28 05:36:00;;;;;;;0.00;0.00;;;0.30;99.90;;;;;;5011112;28;20182;-58
2023/03/28 05:38:28;;;;;;;0.00;0.00;;;0.30;99.90;;;;;;5011028;28;20622;-58
2023/03/28 05:40:53;;;;;;;0.00;0.00;;;0.20;99.90;;;;;;5010971;28;20182;-58
2023/03/28 05:43:19;;;;;;;0.00;0.00;;;0.20;99.90;;;;;;5010899;28;20279;-58
2023/03/28 05:45:46;;;;;;;0.00;0.00;;;0.20;99.90;;;;;;5011050;28;20563;-58
2023/03/28 05:48:11;;;;;;;0.00;0.00;;;0.30;99.90;;;;;;5010868;28;20191;-59
2023/03/28 05:50:37;;;;;;;0.00;0.00;;;0.30;99.90;;;;;;5011015;28;20186;-58
2023/03/28 05:53:02;;;;;;;0.00;0.00;;;0.30;99.90;;;;;;5010875;28;20207;-58
2023/03/28 05:55:28;;;;;;;0.00;0.00;;;0.30;99.90;;;;;;5010706;28;20218;-59
2023/03/28 05:57:54;;;;;;;0.00;0.00;;;0.40;99.90;;;;;;5010940;28;20210;-59
2023/03/28 06:00:22;;;;;;;0.00;0.00;;;0.40;99.90;;;;;;5010760;28;20638;-58
2023/03/28 06:02:50;;;;;;;0.00;0.00;;;0.40;99.90;;;;;;5010842;28;20280;-58
2023/03/28 06:05:16;;;;;;;0.00;0.00;;;0.50;99.90;;;;;;5010642;28;20178;-59
2023/03/28 06:07:42;;;;;;;0.00;0.00;;;0.50;99.90;;;;;;4993165;28;20202;-58
2023/03/28 06:10:08;;;;;;;0.00;0.00;;;0.60;99.90;;;;;;4993022;28;20274;-59
2023/03/28 06:12:34;;;;;;;0.00;0.00;;;0.70;99.90;;;;;;5010705;28;20604;-58
2023/03/28 06:15:00;;;;;;;0.00;0.00;;;0.80;99.90;;;;;;5001440;28;20258;-58
2023/03/28 06:17:25;;;;;;;0.00;0.00;;;0.90;99.90;;;;;;5003924;28;20221;-58
2023/03/28 06:19:51;;;;;;;0.00;0.00;;;1.00;99.90;;;;;;5010771;28;20195;-59
2023/03/28 06:22:16;;;;;;;0.00;0.00;;;1.20;99.90;;;;;;5014117;28;20185;-58
2023/03/28 06:24:42;;;;;;;0.00;0.00;;;1.40;99.90;;;;;;5001488;28;20183;-58
2023/03/28 06:27:07;;;;;;;0.00;0.00;;;1.60;99.90;;;;;;4999531;28;20592;-58
2023/03/28 06:29:33;;;;;;;0.00;0.00;;;1.90;99.90;;;;;;5014012;28;20833;-58
2023/03/28 06:31:58;;;;;;;0.00;0.00;;;2.20;99.90;;;;;;5014118;28;20186;-58
2023/03/28 06:34:24;;;;;;;0.00;0.00;;;2.60;99.90;;;;;;5013994;28;20573;-59
2023/03/28 06:36:49;;;;;;;0.00;0.00;;;3.10;99.90;;;;;;5014013;28;20197;-59
2023/03/28 06:39:15;;;;;;;0.00;0.00;;;3.50;99.90;;;;;;5013966;28;20175;-59
2023/03/28 06:41:41;;;;;;;0.00;0.00;;;4.10;99.90;;;;;;5014031;28;20229;-58
2023/03/28 06:44:06;;;;;;;0.00;0.00;;;4.80;99.90;;;;;;5013955;28;20178;-58
2023/03/28 06:46:32;;;;;;;0.00;0.00;;;5.40;99.90;;;;;;5013594;28;20658;-58
2023/03/28 06:48:57;;;;;;;0.00;0.00;;;6.00;99.90;;;;;;4996317;28;20187;-59
2023/03/28 06:51:24;;;;;;;0.00;0.00;;;6.60;99.90;;;;;;5013736;28;20206;-59
2023/03/28 06:53:49;;;;;;;0.10;0.10;;;7.20;99.90;;;;;;5013673;28;20206;-59
2023/03/28 06:56:16;;;;;;;0.00;0.00;;;7.50;99.90;;;;;;5013673;28;20697;-59
2023/03/28 06:58:41;;;;;;;0.00;0.00;;;8.00;99.90;;;;;;5013738;28;20202;-59
2023/03/28 07:01:07;;;;;;;0.00;0.00;;;8.30;99.00;;;;;;5013684;28;20779;-59
2023/03/28 07:03:32;;;;;;;0.00;0.00;;;8.70;97.60;;;;;;5013487;28;20167;-59
2023/03/28 07:06:02;;;;;;;0.00;0.00;;;9.20;96.90;;;;;;5013386;28;20226;-59
2023/03/28 07:08:27;;;;;;;0.00;0.00;;;9.70;95.80;;;;;;5013290;28;20174;-59
2023/03/28 07:10:53;;;;;;;0.00;0.00;;;10.00;93.90;;;;;;4996063;28;20225;-59
2023/03/28 07:13:18;;;;;;;0.00;0.00;;;10.30;93.10;;;;;;5013438;28;20249;-59
2023/03/28 07:15:44;;;;;;;0.00;0.00;;;10.60;92.30;;;;;;5013759;28;20544;-59
2023/03/28 07:18:09;;;;;;;0.00;0.00;;;10.70;91.30;;;;;;5013503;28;20232;-59
2023/03/28 07:20:41;;;;;;;0.00;0.00;;;10.80;90.40;;;;;;5013480;28;20261;-59
2023/03/28 07:23:06;;;;;;;0.00;0.00;;;11.00;90.00;;;;;;5013576;28;20172;-59
2023/03/28 07:25:33;;;;;;;0.00;0.00;;;11.30;88.10;;;;;;5013374;28;20183;-59
2023/03/28 07:27:59;;;;;;;0.00;0.00;;;11.60;87.80;;;;;;5013450;28;20618;-59
2023/03/28 07:30:25;;;;;;;0.00;0.00;;;11.80;83.70;;;;;;5013328;28;20186;-59
2023/03/28 07:32:52;;;;;;;0.00;0.00;;;11.90;84.40;;;;;;5012738;28;20254;-59
2023/03/28 07:35:17;;;;;;;0.00;0.00;;;12.20;82.70;;;;;;5013162;28;20397;-59
2023/03/28 07:37:43;;;;;;;0.00;0.00;;;12.50;81.70;;;;;;5013364;28;20211;-59
2023/03/28 07:40:09;;;;;;;0.00;0.00;;;12.90;80.30;;;;;;5013100;28;20183;-60
2023/03/28 07:42:35;;;;;;;0.00;0.00;;;13.30;78.50;;;;;;5013100;28;20183;-59
2023/03/28 07:45:01;;;;;;;0.00;0.00;;;13.50;75.80;;;;;;5013196;28;20269;-59
2023/03/28 07:47:26;;;;;;;0.00;0.00;;;13.70;73.80;;;;;;5013297;28;20170;-60
2023/03/28 07:49:52;;;;;;;0.00;0.00;;;13.90;73.00;;;;;;5013041;28;20179;-59
2023/03/28 07:52:19;;;;;;;0.00;0.00;;;14.00;68.70;;;;;;5012928;28;20645;-59
2023/03/28 07:54:45;;;;;;;0.00;0.00;;;14.10;67.50;;;;;;5012998;28;20305;-59
2023/03/28 07:57:10;;;;;;;0.00;0.00;;;14.30;65.00;;;;;;5012823;28;20254;-60
2023/03/28 07:59:36;;;;;;;0.00;0.00;;;14.20;62.50;;;;;;5012860;28;20187;-59
2023/03/28 08:02:01;;;;;;;0.20;0.20;;;14.00;63.10;;;;;;5012861;28;20225;-59
2023/03/28 08:04:27;;;;;;;0.00;0.00;;;14.20;62.40;;;;;;5012794;28;20187;-60
2023/03/28 08:06:52;;;;;;;0.00;0.00;;;14.50;63.10;;;;;;5012693;28;20227;-59
2023/03/28 08:09:19;;;;;;;0.00;0.00;;;14.70;61.40;;;;;;5012615;28;20183;-59
2023/03/28 08:11:45;;;;;;;0.00;0.00;;;14.80;59.70;;;;;;5012688;28;20233;-59
2023/03/28 08:14:13;;;;;;;0.00;0.00;;;14.90;60.30;;;;;;5012456;28;20605;-60
2023/03/28 08:16:39;;;;;;;0.00;0.00;;;14.60;60.00;;;;;;5012586;28;20179;-59
2023/03/28 08:19:05;;;;;;;0.00;0.00;;;14.80;61.20;;;;;;5012549;28;20723;-59
2023/03/28 08:21:31;;;;;;;0.00;0.00;;;14.70;60.20;;;;;;5012308;28;20240;-59
2023/03/28 08:24:03;;;;;;;0.00;0.00;;;14.70;60.10;;;;;;4993242;28;20273;-59
2023/03/28 08:26:29;;;;;;;0.00;0.00;;;15.10;59.40;;;;;;4992549;28;20187;-59
2023/03/28 08:28:57;;;;;;;0.00;0.00;;;15.50;60.60;;;;;;4992903;28;20175;-59
2023/03/28 08:31:24;;;;;;;0.00;0.00;;;15.60;59.20;;;;;;4992613;28;20601;-59
2023/03/28 08:33:51;;;;;;;0.00;0.00;;;15.60;58.40;;;;;;4992644;28;20302;-59
2023/03/28 08:36:17;;;;;;;0.10;0.10;;;15.40;58.70;;;;;;4992618;28;20179;-59
2023/03/28 08:38:44;;;;;;;0.00;0.00;;;15.50;58.10;;;;;;4992646;28;20178;-59
2023/03/28 08:41:44;;;;;;;0.00;0.00;;;15.60;56.60;;;;;;4992479;28;20187;-59
2023/03/28 08:44:26;;;;;;;0.00;0.00;;;15.60;56.90;;;;;;4992308;28;20522;-60
2023/03/28 08:47:00;;;;;;;0.10;0.10;;;15.50;57.70;;;;;;4992432;28;20674;-59
2023/03/28 08:49:25;;;;;;;0.00;0.00;;;15.00;56.90;;;;;;4992402;28;20229;-59
2023/03/28 08:51:57;;;;;;;0.00;0.00;;;14.70;56.80;;;;;;4992351;28;20541;-59
2023/03/28 08:54:39;;;;;;;0.00;0.00;;;14.50;57.90;;;;;;4992249;28;20223;-59
2023/03/28 08:57:12;;;;;;;0.00;0.00;;;14.10;57.90;;;;;;4992418;28;20246;-59
2023/03/28 09:00:08;;;;;;;0.00;0.00;;;14.20;58.60;;;;;;4992376;28;20187;-59
2023/03/28 09:02:34;;;;;;;0.00;0.00;;;14.30;56.90;;;;;;4992266;28;20185;-59
2023/03/28 09:04:59;;;;;;;0.00;0.00;;;14.30;56.30;;;;;;4992420;28;20537;-59
2023/03/28 09:07:43;;;;;;;0.00;0.00;;;13.80;54.60;;;;;;4992021;28;20226;-59
2023/03/28 09:10:08;;;;;;;0.00;0.00;;;13.50;56.00;;;;;;4992154;28;20183;-59
2023/03/28 09:12:52;;;;;;;0.00;0.00;;;13.60;58.00;;;;;;4992251;28;20179;-59
2023/03/28 09:15:24;;;;;;;0.00;0.00;;;13.60;59.50;;;;;;4992044;28;20297;-59
2023/03/28 09:18:15;;;;;;;0.00;0.00;;;14.10;59.90;;;;;;4992154;28;20210;-59
2023/03/28 09:20:52;;;;;;;0.00;0.00;;;14.30;58.30;;;;;;4992175;28;20163;-59
2023/03/28 09:23:42;;;;;;;0.00;0.00;;;14.30;59.30;;;;;;4992077;28;20270;-59
2023/03/28 09:26:16;;;;;;;0.00;0.00;;;14.10;57.80;;;;;;5011053;28;20209;-59
2023/03/28 09:29:05;;;;;;;0.00;0.00;;;14.00;58.20;;;;;;5011771;28;20201;-59
2023/03/28 09:31:36;;;;;;;0.00;0.00;;;14.10;59.90;;;;;;5000713;28;20189;-59
2023/03/28 09:34:02;;;;;;;0.00;0.00;;;14.30;58.70;;;;;;5011547;28;20226;-59
2023/03/28 09:36:30;;;;;;;0.00;0.00;;;14.60;61.00;;;;;;5011320;28;20189;-59
2023/03/28 09:39:00;;;;;;;0.00;0.00;;;15.00;59.70;;;;;;5011630;28;20183;-59
2023/03/28 09:41:53;;;;;;;0.00;0.00;;;15.20;55.50;;;;;;5011339;28;20178;-59
2023/03/28 09:44:27;;;;;;;0.00;0.00;;;15.50;57.00;;;;;;5011534;28;20838;-59
2023/03/28 09:46:55;;;;;;;0.00;0.00;;;15.40;56.10;;;;;;5011479;28;20186;-59
2023/03/28 09:49:23;;;;;;;0.00;0.00;;;15.40;56.80;;;;;;5011382;28;20195;-59
2023/03/28 09:51:51;;;;;;;0.00;0.00;;;15.10;54.00;;;;;;5011386;28;20593;-59
2023/03/28 09:54:29;;;;;;;0.00;0.00;;;15.20;55.00;;;;;;5011724;28;20273;-59
2023/03/28 09:57:02;;;;;;;0.00;0.00;;;15.20;56.20;;;;;;5015163;28;20660;-59
2023/03/28 09:59:30;;;;;;;0.00;0.00;;;15.30;54.40;;;;;;5014978;28;20183;-59
2023/03/28 10:01:56;;;;;;;0.00;0.00;;;15.00;54.30;;;;;;5015109;28;20179;-59
2023/03/28 10:04:25;;;;;;;0.00;0.00;;;15.00;53.80;;;;;;5014909;28;20194;-59
2023/03/28 10:06:51;;;;;;;0.00;0.00;;;14.70;54.20;;;;;;5014608;28;20728;-59
2023/03/28 10:09:22;;;;;;;0.00;0.00;;;14.70;53.30;;;;;;5014795;28;20178;-59
2023/03/28 10:11:54;;;;;;;0.00;0.00;;;14.00;53.30;;;;;;5014860;28;20179;-59
2023/03/28 10:14:36;;;;;;;0.00;0.00;;;13.20;53.20;;;;;;5014578;28;20214;-59
2023/03/28 10:17:33;;;;;;;0.00;0.00;;;13.00;53.90;;;;;;4997124;28;20186;-59
2023/03/28 10:20:05;;;;;;;0.00;0.00;;;13.20;50.40;;;;;;4993379;28;20218;-59
2023/03/28 10:22:33;;;;;;;0.00;0.00;;;13.10;53.50;;;;;;5014510;28;20533;-59
2023/03/28 10:25:02;;;;;;;0.00;0.00;;;12.70;52.00;;;;;;5014711;28;20227;-59
2023/03/28 10:27:33;;;;;;;0.00;0.00;;;12.70;55.00;;;;;;5014427;28;20657;-59
2023/03/28 10:30:28;;;;;;;0.00;0.00;;;12.60;52.90;;;;;;5014620;28;20261;-59
2023/03/28 10:33:28;;;;;;;0.00;0.00;;;12.30;51.70;;;;;;5014400;28;20186;-59
2023/03/28 10:36:00;;;;;;;0.00;0.00;;;11.90;54.00;;;;;;5013756;28;20245;-59
2023/03/28 10:38:31;;;;;;;0.00;0.00;;;11.20;56.70;;;;;;5014316;28;20194;-59
2023/03/28 10:41:08;;;;;;;0.00;0.00;;;11.10;56.70;;;;;;5014438;28;20185;-59
2023/03/28 10:43:37;;;;;;;0.00;0.00;;;11.40;57.60;;;;;;5014276;28;20183;-59
2023/03/28 10:46:30;;;;;;;0.00;0.00;;;11.70;53.90;;;;;;5014261;28;20666;-59
2023/03/28 10:49:00;;;;;;;0.00;0.00;;;12.00;56.30;;;;;;5014307;28;20642;-59
2023/03/28 10:51:30;;;;;;;0.00;0.00;;;12.40;53.60;;;;;;5014124;28;20543;-59
2023/03/28 10:54:07;;;;;;;0.00;0.00;;;12.80;57.30;;;;;;5013942;28;20218;-59
2023/03/28 10:56:40;;;;;;;0.57;0.57;;;13.20;52.30;;;;;;5013991;28;20178;-59
2023/03/28 10:59:22;;;;;;;0.00;0.00;;;13.20;53.60;;;;;;5014005;28;20716;-59
2023/03/28 11:02:01;;;;;;;0.00;0.00;;;13.40;52.90;;;;;;5013915;28;20185;-59
2023/03/28 11:05:00;;;;;;;0.00;0.00;;;13.60;52.70;;;;;;5013911;28;20198;-59
2023/03/28 11:07:46;;;;;;;0.00;0.00;;;13.70;52.60;;;;;;5012525;28;20241;-59
2023/03/28 11:10:35;;;;;;;0.00;0.00;;;13.20;51.70;;;;;;5013724;28;20193;-59
2023/03/28 11:13:24;;;;;;;0.00;0.00;;;13.00;52.60;;;;;;5013828;28;20225;-59
2023/03/28 11:16:13;;;;;;;0.00;0.00;;;13.00;52.60;;;;;;5013677;28;20201;-59
2023/03/28 11:19:14;;;;;;;0.00;0.00;;;13.20;51.90;;;;;;5013673;28;20182;-59
2023/03/28 11:22:00;;;;;;;0.00;0.00;;;13.40;50.10;;;;;;5013585;28;20170;-59
2023/03/28 11:24:51;;;;;;;0.00;0.00;;;13.60;50.20;;;;;;5013419;28;20241;-59
2023/03/28 11:27:32;;;;;;;0.00;0.00;;;14.00;51.80;;;;;;5013412;28;20175;-59
2023/03/28 11:30:01;;;;;;;0.00;0.00;;;14.00;50.20;;;;;;5013512;28;20267;-59
2023/03/28 11:32:39;;;;;;;0.00;0.00;;;13.90;50.30;;;;;;5013202;28;20178;-59
2023/03/28 11:35:13;;;;;;;0.00;0.00;;;13.40;51.40;;;;;;5013289;28;20214;-59
2023/03/28 11:37:48;;;;;;;0.00;0.00;;;13.30;50.90;;;;;;5013301;28;20202;-59
2023/03/28 11:40:32;;;;;;;0.00;0.00;;;13.10;51.30;;;;;;5013206;28;20597;-59
2023/03/28 11:43:05;;;;;;;0.10;0.10;;;13.20;51.40;;;;;;5013144;28;20177;-59
2023/03/28 11:45:45;;;;;;;0.00;0.00;;;13.40;50.10;;;;;;5013057;28;20182;-59
2023/03/28 11:48:18;;;;;;;0.00;0.00;;;13.70;50.20;;;;;;5012983;28;20178;-59
2023/03/28 11:51:03;;;;;;;0.00;0.00;;;14.10;49.70;;;;;;5012921;28;20179;-59
2023/03/28 11:53:43;;;;;;;0.00;0.00;;;14.20;49.60;;;;;;5012723;28;20289;-59
2023/03/28 11:56:33;;;;;;;0.00;0.00;;;14.20;50.40;;;;;;5012980;28;20608;-59
2023/03/28 11:59:08;;;;;;;0.00;0.00;;;14.30;50.10;;;;;;5012889;28;20175;-59
2023/03/28 12:01:40;;;;;;;0.00;0.00;;;13.70;51.70;;;;;;5012895;28;20182;-59
2023/03/28 12:04:11;;;;;;;0.00;0.00;;;13.40;50.20;;;;;;5012901;28;20167;-59
2023/03/28 12:06:51;;;;;;;0.00;0.00;;;13.30;51.20;;;;;;5012670;28;20283;-59
2023/03/28 12:09:49;;;;;;;0.00;0.00;;;13.20;52.10;;;;;;5012776;28;20175;-59
2023/03/28 12:12:21;;;;;;;0.00;0.00;;;13.10;51.70;;;;;;5012695;28;20203;-59
2023/03/28 12:15:03;;;;;;;0.08;0.08;;;13.30;52.90;;;;;;5012599;28;20265;-59
2023/03/28 12:17:42;;;;;;;0.00;0.00;;;12.90;50.50;;;;;;5012209;28;20584;-59
2023/03/28 12:20:15;;;;;;;0.00;0.00;;;12.60;53.60;;;;;;5012460;28;20213;-60
2023/03/28 12:22:49;;;;;;;0.00;0.00;;;12.50;53.50;;;;;;5012434;28;20672;-59
2023/03/28 12:25:42;;;;;;;0.00;0.00;;;12.40;52.70;;;;;;5012355;28;20201;-59
2023/03/28 12:28:37;;;;;;;0.00;0.00;;;12.40;53.00;;;;;;5012282;28;20179;-60
2023/03/28 12:31:25;;;;;;;0.00;0.00;;;12.20;53.00;;;;;;5012336;28;20167;-59
2023/03/28 12:34:09;;;;;;;0.10;0.10;;;12.30;53.80;;;;;;5012102;28;20788;-59
2023/03/28 12:36:49;;;;;;;0.00;0.00;;;12.30;53.40;;;;;;5012311;28;20179;-59
2023/03/28 12:39:45;;;;;;;0.00;0.00;;;12.60;53.10;;;;;;5012014;28;20676;-59
2023/03/28 12:42:13;;;;;;;0.00;0.00;;;12.70;52.30;;;;;;5012046;28;20646;-59
2023/03/28 12:57:39;;;;;;;0.00;0.00;;;12.50;50.40;;;;;;3201193;27;1187585;-58
2023/03/28 13:00:19;;;;;;;0.00;0.00;;;12.90;51.80;;;;;;5108262;28;20256;-58
2023/03/28 13:02:57;;;;;;;0.00;0.00;;;13.00;50.60;;;;;;5108453;28;20254;-58
2023/03/28 13:05:38;;;;;;;0.00;0.00;;;13.20;51.20;;;;;;5087813;28;20245;-58
2023/03/28 13:20:52;;;;;;;0.00;0.00;;;13.30;50.70;;;;;;5107995;27;20585;-58
2023/03/28 13:23:25;;;;;;;0.00;0.00;;;12.00;52.00;;;;;;5108378;28;20176;-58
2023/03/28 13:26:03;;;;;;;0.00;0.00;;;11.90;53.80;;;;;;5108082;28;20811;-58
2023/03/28 13:28:34;;;;;;;0.00;0.00;;;11.70;53.60;;;;;;5108215;28;20272;-58
2023/03/28 13:31:23;;;;;;;0.00;0.00;;;11.70;54.80;;;;;;5107993;28;20514;-58
2023/03/28 13:34:01;;;;;;;0.00;0.00;;;11.90;54.20;;;;;;5097722;28;20215;-58
2023/03/28 13:36:28;;;;;;;0.00;0.00;;;12.00;54.50;;;;;;5107840;28;20167;-58
2023/03/28 13:39:04;;;;;;;0.00;0.00;;;12.20;53.60;;;;;;5107919;28;20259;-58
2023/03/28 13:41:45;;;;;;;0.00;0.00;;;12.60;53.10;;;;;;5108137;28;20183;-58
2023/03/28 13:44:34;;;;;;;0.00;0.00;;;12.70;52.60;;;;;;5107998;28;20262;-58